HTZA/ZNZ METAR and TAF weather

Enter ICAO airport designator
Station Type Date Time Source
HTZA METAR 2020/09/18 23:00 UTC NOAA

HTZA 182300Z 00000KT 9999 FEW016 24/20 Q1014 NOSIG


Station Type Date Time Source
HTZA Decoded METAR 2020/09/18 23:00 UTC NOAA

Zanzibar / Kisauni, Tanzania (HTZA) 06-13S 039-13E 15M
Sep 18, 2020 - 07:00 PM EDT / 2020.09.18 2300 UTC
Wind: Calm:0
Visibility: greater than 7 mile(s):0
Sky conditions: mostly clear
Temperature: 75 F (24 C)
Dew Point: 68 F (20 C)
Relative Humidity: 78%
Pressure (altimeter): 29.94 in. Hg (1014 hPa)
ob: HTZA 182300Z 00000KT 9999 FEW016 24/20 Q1014 NOSIG
cycle: 23

Station Type Date Time Source
HTZA TAF 2020/09/19 00:12 UTC NOAA

HTZA 182300Z 1900/1924 00000KT 9999 FEW012
BECMG 1903/1905 21010KT BKN014
BECMG 190/1912 13015KT SCT022

Example: see airport list